Time;durP1;ratioP1;P1;durP2;ratioP2;P2;SDS_P1;SDS_P2;PMS_P1;PMS_P2;Temp;Humidity;BMP_temperature;BMP_pressure;BME280_temperature;BME280_humidity;BME280_pressure;Samples;Min_cycle;Max_cycle;Signal;HPM_P1;HPM_P2
2021/10/31 00:01:09;;;;;;;15.60;5.70;;;;;;;9.40;100.00;100630.88;5072346;28;20423;-59
2021/10/31 00:03:35;;;;;;;12.10;5.65;;;;;;;9.36;100.00;100635.47;5072939;28;20481;-61
2021/10/31 00:06:01;;;;;;;14.50;5.22;;;;;;;9.32;100.00;100624.16;5072765;28;20036;-63
2021/10/31 00:08:26;;;;;;;12.32;5.35;;;;;;;9.34;100.00;100624.09;5073282;28;20456;-59
2021/10/31 00:10:52;;;;;;;15.65;5.63;;;;;;;9.36;100.00;100624.91;5073208;28;20476;-61
2021/10/31 00:13:17;;;;;;;15.05;5.15;;;;;;;9.34;100.00;100624.09;5072092;28;20024;-59
2021/10/31 00:15:43;;;;;;;13.63;5.55;;;;;;;9.33;100.00;100630.31;5072932;28;20059;-59
2021/10/31 00:18:09;;;;;;;13.57;4.80;;;;;;;9.32;100.00;100633.88;5073151;28;20029;-60
2021/10/31 00:20:34;;;;;;;13.95;4.88;;;;;;;9.31;100.00;100629.50;5072492;28;20028;-59
2021/10/31 00:22:59;;;;;;;12.55;5.30;;;;;;;9.28;100.00;100645.50;5072677;28;20028;-65
2021/10/31 00:25:25;;;;;;;15.07;5.38;;;;;;;9.29;100.00;100637.50;5072646;28;20467;-59
2021/10/31 00:27:50;;;;;;;17.02;5.53;;;;;;;9.29;100.00;100644.56;5073093;28;20029;-64
2021/10/31 00:30:16;;;;;;;15.23;5.25;;;;;;;9.30;100.00;100648.94;5073186;28;20021;-59
2021/10/31 00:32:41;;;;;;;15.80;5.55;;;;;;;9.30;100.00;100651.59;5072446;28;20032;-59
2021/10/31 00:35:07;;;;;;;14.00;4.60;;;;;;;9.30;100.00;100655.06;5062272;28;20085;-58
2021/10/31 00:37:33;;;;;;;14.82;5.45;;;;;;;9.26;100.00;100642.94;5072901;28;20032;-59
2021/10/31 00:39:58;;;;;;;14.63;5.03;;;;;;;9.28;100.00;100650.78;5072860;28;20105;-65
2021/10/31 00:42:24;;;;;;;15.18;5.20;;;;;;;9.31;100.00;100646.22;5072923;28;20036;-58
2021/10/31 00:44:49;;;;;;;13.50;4.78;;;;;;;9.32;100.00;100649.72;5072163;28;20025;-59
2021/10/31 00:47:14;;;;;;;13.07;4.88;;;;;;;9.30;100.00;100646.31;5072430;28;20037;-61
2021/10/31 00:49:40;;;;;;;14.57;4.32;;;;;;;9.31;100.00;100653.28;5072863;28;20024;-59
2021/10/31 00:52:06;;;;;;;13.07;5.43;;;;;;;9.31;100.00;100655.91;5072586;28;20450;-65
2021/10/31 00:54:31;;;;;;;22.10;5.20;;;;;;;9.31;100.00;100655.91;5072692;28;20039;-60
2021/10/31 00:56:57;;;;;;;13.07;5.13;;;;;;;9.28;100.00;100658.72;5072643;28;20028;-60
2021/10/31 00:59:23;;;;;;;16.23;5.20;;;;;;;9.27;100.00;100663.16;5072657;28;20028;-59
2021/10/31 01:01:49;;;;;;;13.23;5.43;;;;;;;9.34;100.00;100663.75;5072783;28;20024;-59
2021/10/31 01:04:20;;;;;;;13.05;5.20;;;;;;;9.34;100.00;100661.09;5074246;28;20078;-60
2021/10/31 01:06:51;;;;;;;12.85;5.28;;;;;;;9.34;100.00;100671.66;5075789;28;20041;-59
2021/10/31 01:09:46;;;;;;;10.13;5.22;;;;;;;9.39;100.00;100672.31;5076564;28;20111;-59
2021/10/31 01:12:43;;;;;;;11.45;5.25;;;;;;;9.34;100.00;100671.66;4975652;28;20101;-59
2021/10/31 01:15:08;;;;;;;14.35;5.30;;;;;;;9.37;100.00;100665.38;4965160;28;20462;-59
2021/10/31 01:17:52;;;;;;;14.07;5.28;;;;;;;9.37;100.00;100658.31;4974656;28;20119;-65
2021/10/31 01:20:20;;;;;;;15.50;5.63;;;;;;;9.36;100.00;100656.63;4975309;28;20042;-59
2021/10/31 01:23:07;;;;;;;11.40;5.00;;;;;;;9.37;100.00;100647.75;4975035;28;20495;-58
2021/10/31 01:25:44;;;;;;;14.88;5.00;;;;;;;9.44;100.00;100649.19;4975240;28;20022;-60
2021/10/31 01:28:22;;;;;;;12.10;4.65;;;;;;;9.49;100.00;100647.22;4974459;28;20511;-63
2021/10/31 01:31:09;;;;;;;11.68;4.90;;;;;;;9.51;100.00;100636.56;4975168;28;20043;-59
2021/10/31 01:33:43;;;;;;;14.25;5.15;;;;;;;9.50;100.00;100637.50;4975005;28;20035;-60
2021/10/31 01:36:27;;;;;;;12.35;4.50;;;;;;;9.46;100.00;100650.00;4974937;28;20117;-59
2021/10/31 01:39:10;;;;;;;13.23;4.70;;;;;;;9.42;100.00;100645.75;4973945;28;20483;-60
2021/10/31 01:42:04;;;;;;;12.40;4.25;;;;;;;9.39;100.00;100652.97;4974529;28;20129;-58
2021/10/31 01:44:51;;;;;;;9.50;4.57;;;;;;;9.34;100.00;100642.59;4974796;28;20518;-60
2021/10/31 01:47:35;;;;;;;13.70;5.38;;;;;;;9.26;100.00;100647.34;4974530;28;20109;-63
2021/10/31 01:50:33;;;;;;;17.15;4.82;;;;;;;9.18;100.00;100664.38;5058489;28;20041;-61
2021/10/31 01:53:05;;;;;;;10.73;4.95;;;;;;;9.08;100.00;100662.19;5075212;28;20093;-65
2021/10/31 01:55:35;;;;;;;;;;;;;;;9.00;100.00;100644.88;5075930;28;20075;-63
2021/10/31 01:58:03;;;;;;;14.90;4.90;;;;;;;9.01;100.00;100659.81;5075133;28;19916;-59
2021/10/31 02:00:30;;;;;;;11.32;5.20;;;;;;;9.02;100.00;100650.94;5073819;28;20032;-59
2021/10/31 02:02:57;;;;;;;12.82;5.10;;;;;;;9.01;100.00;100646.59;5075125;28;20039;-59
2021/10/31 02:05:27;;;;;;;12.02;4.72;;;;;;;8.94;100.00;100650.41;5075170;28;20027;-62
2021/10/31 02:07:56;;;;;;;16.10;5.40;;;;;;;8.94;100.00;100657.47;5075349;28;20080;-59
2021/10/31 02:10:23;;;;;;;14.43;5.50;;;;;;;8.94;100.00;100660.09;5074302;28;20016;-62
2021/10/31 02:12:50;;;;;;;12.68;5.40;;;;;;;8.93;100.00;100661.03;5075176;28;20039;-62
2021/10/31 02:15:17;;;;;;;11.35;5.00;;;;;;;8.92;100.00;100662.81;5074739;28;20039;-64
2021/10/31 02:17:46;;;;;;;13.80;5.07;;;;;;;8.95;100.00;100657.41;5075130;28;20028;-65
2021/10/31 02:20:12;;;;;;;13.35;4.85;;;;;;;8.95;100.00;100652.13;5074362;28;20384;-63
2021/10/31 02:22:38;;;;;;;12.48;5.13;;;;;;;8.97;100.00;100658.19;5074442;28;20024;-59
2021/10/31 02:25:04;;;;;;;13.13;5.00;;;;;;;9.02;100.00;100650.94;5074510;28;20021;-65
2021/10/31 02:27:33;;;;;;;11.95;5.07;;;;;;;9.07;100.00;100652.56;5074871;28;20388;-58
2021/10/31 02:30:00;;;;;;;11.98;4.88;;;;;;;9.11;100.00;100647.06;5074899;28;20105;-60
2021/10/31 02:32:31;;;;;;;12.57;4.95;;;;;;;9.13;100.00;100642.59;5074136;28;20480;-60
2021/10/31 02:34:58;;;;;;;10.63;4.13;;;;;;;9.17;100.00;100657.38;5074714;28;20044;-59
2021/10/31 02:37:24;;;;;;;13.60;4.65;;;;;;;9.16;100.00;100646.88;5075036;28;20029;-60
2021/10/31 02:39:50;;;;;;;12.57;4.50;;;;;;;9.15;100.00;100651.28;5074171;28;20507;-59
2021/10/31 02:42:16;;;;;;;12.02;4.97;;;;;;;9.16;100.00;100650.38;5073993;28;20029;-59
2021/10/31 02:44:42;;;;;;;10.80;4.65;;;;;;;9.18;100.00;100655.59;5074702;28;20108;-59
2021/10/31 02:47:15;;;;;;;14.73;4.80;;;;;;;9.17;100.00;100644.16;5074484;28;20549;-59
2021/10/31 02:49:41;;;;;;;16.13;5.65;;;;;;;9.16;100.00;100647.72;5074506;28;20472;-59
2021/10/31 02:52:44;;;;;;;10.57;5.13;;;;;;;9.16;100.00;100649.53;5074126;28;20042;-59
2021/10/31 02:55:43;;;;;;;13.65;5.93;;;;;;;9.14;100.00;100651.34;5074132;28;20461;-59
2021/10/31 02:58:19;;;;;;;16.77;6.80;;;;;;;9.13;100.00;100645.22;5074507;28;20035;-60
2021/10/31 03:00:46;;;;;;;17.08;7.13;;;;;;;9.08;100.00;100647.22;5074392;28;20032;-59
2021/10/31 03:03:13;;;;;;;13.63;6.20;;;;;;;9.02;100.00;100642.16;5073835;28;20029;-59
2021/10/31 03:05:38;;;;;;;15.15;6.45;;;;;;;8.99;100.00;100637.88;5055605;28;20609;-64
2021/10/31 03:08:05;;;;;;;14.38;7.22;;;;;;;8.95;100.00;100636.28;5073945;28;20024;-59
2021/10/31 03:10:31;;;;;;;19.58;8.80;;;;;;;8.96;100.00;100634.50;5073817;28;20028;-59
2021/10/31 03:12:56;;;;;;;19.15;8.10;;;;;;;8.96;100.00;100631.84;5074012;28;20522;-59
2021/10/31 03:15:23;;;;;;;21.50;9.20;;;;;;;8.90;100.00;100627.69;5073312;28;20024;-65
2021/10/31 03:17:48;;;;;;;15.57;8.45;;;;;;;8.92;100.00;100628.47;5073906;28;20079;-65
2021/10/31 03:20:14;;;;;;;20.52;8.57;;;;;;;8.89;100.00;100628.63;5073877;28;20064;-59
2021/10/31 03:22:39;;;;;;;22.23;10.15;;;;;;;8.86;100.00;100623.44;5073614;28;20483;-59
2021/10/31 03:25:05;;;;;;;21.00;8.90;;;;;;;8.85;100.00;100627.88;5073381;28;20025;-60
2021/10/31 03:27:30;;;;;;;16.92;8.45;;;;;;;8.83;100.00;100618.31;5072929;28;20484;-60
2021/10/31 03:29:56;;;;;;;18.63;8.60;;;;;;;8.84;100.00;100620.03;5073641;28;20024;-59
2021/10/31 03:32:21;;;;;;;18.60;8.23;;;;;;;8.84;100.00;100612.94;5073897;28;20100;-59
2021/10/31 03:34:47;;;;;;;20.52;8.98;;;;;;;8.84;100.00;100620.88;5072904;28;20094;-61
2021/10/31 03:37:13;;;;;;;20.60;9.75;;;;;;;8.81;100.00;100620.13;5073228;28;20064;-58
2021/10/31 03:39:38;;;;;;;15.73;8.18;;;;;;;8.77;100.00;100621.19;5073433;28;20067;-59
2021/10/31 03:42:05;;;;;;;18.02;7.00;;;;;;;8.71;100.00;100609.13;5073330;28;20045;-60
2021/10/31 03:44:35;;;;;;;13.93;6.57;;;;;;;8.71;100.00;100613.50;5073745;28;20024;-60
2021/10/31 03:47:00;;;;;;;18.50;7.82;;;;;;;8.69;100.00;100618.88;5072855;28;20032;-64
2021/10/31 03:49:26;;;;;;;15.75;7.18;;;;;;;8.66;100.00;100614.56;5073300;28;20027;-56
2021/10/31 03:51:51;;;;;;;15.75;7.53;;;;;;;8.69;100.00;100603.03;5073386;28;20077;-59
2021/10/31 03:54:16;;;;;;;12.90;6.53;;;;;;;8.67;100.00;100615.41;5055317;28;20059;-59
2021/10/31 03:56:42;;;;;;;14.13;6.97;;;;;;;8.67;100.00;100607.50;5072493;28;20025;-59
2021/10/31 03:59:07;;;;;;;14.95;7.35;;;;;;;8.67;100.00;100603.09;5073329;28;20056;-59
2021/10/31 04:01:33;;;;;;;13.05;7.43;;;;;;;8.66;100.00;100601.38;5073302;28;20020;-65
2021/10/31 04:03:59;;;;;;;16.27;8.13;;;;;;;8.64;100.00;100611.13;5073339;28;20060;-59
2021/10/31 04:06:24;;;;;;;17.52;7.95;;;;;;;8.65;100.00;100601.44;5073005;28;20031;-59
2021/10/31 04:08:50;;;;;;;18.88;9.18;;;;;;;8.66;100.00;100608.44;5072777;28;20103;-60
2021/10/31 04:11:15;;;;;;;14.70;8.63;;;;;;;8.66;100.00;100606.66;5073167;28;20082;-59
2021/10/31 04:13:41;;;;;;;19.05;10.48;;;;;;;8.63;100.00;100609.44;5073136;28;20046;-59
2021/10/31 04:16:06;;;;;;;24.58;12.30;;;;;;;8.61;100.00;100607.78;5072763;28;20020;-61
2021/10/31 04:18:31;;;;;;;17.58;11.60;;;;;;;8.61;100.00;100592.78;5072887;28;20041;-59
2021/10/31 04:20:57;;;;;;;19.10;11.70;;;;;;;8.63;100.00;100580.41;5073383;28;20110;-59
2021/10/31 04:23:26;;;;;;;20.15;11.57;;;;;;;8.63;100.00;100577.75;5073139;28;20831;-65
2021/10/31 04:25:51;;;;;;;19.52;12.68;;;;;;;8.64;100.00;100591.78;5072963;28;20488;-59
2021/10/31 04:28:17;;;;;;;20.38;12.05;;;;;;;8.67;100.00;100594.28;5072094;28;20052;-59
2021/10/31 04:30:43;;;;;;;23.75;13.55;;;;;;;8.69;100.00;100589.81;5072851;28;20024;-59
2021/10/31 04:33:09;;;;;;;22.60;13.00;;;;;;;8.72;100.00;100588.84;5073081;28;20020;-59
2021/10/31 04:35:36;;;;;;;21.40;12.25;;;;;;;8.72;100.00;100586.19;5073009;28;20123;-60
2021/10/31 04:38:11;;;;;;;23.77;12.85;;;;;;;8.68;100.00;100582.81;5074053;28;20020;-59
2021/10/31 04:40:37;;;;;;;20.58;12.23;;;;;;;8.67;100.00;100589.00;5076717;28;20040;-59
2021/10/31 04:43:02;;;;;;;21.33;12.77;;;;;;;8.65;100.00;100593.53;5076802;28;20155;-64
2021/10/31 04:45:28;;;;;;;24.80;13.05;;;;;;;8.63;100.00;100590.94;5076585;28;20443;-64
2021/10/31 04:47:53;;;;;;;22.27;12.48;;;;;;;8.61;100.00;100592.78;5076938;28;20036;-64
2021/10/31 04:50:18;;;;;;;23.50;13.10;;;;;;;8.58;100.00;100587.63;5076248;28;20070;-60
2021/10/31 04:52:44;;;;;;;20.92;13.15;;;;;;;8.57;100.00;100583.28;5077058;28;20474;-59
2021/10/31 04:55:10;;;;;;;26.33;13.98;;;;;;;8.53;100.00;100579.91;5076622;28;20035;-59
2021/10/31 04:57:36;;;;;;;25.13;13.27;;;;;;;8.51;100.00;100579.09;5076724;28;20024;-54
2021/10/31 05:00:04;;;;;;;22.63;13.18;;;;;;;8.50;100.00;100572.13;5075591;28;20033;-59
2021/10/31 05:02:29;;;;;;;22.88;14.35;;;;;;;8.47;100.00;100572.22;5076494;28;20059;-59
2021/10/31 05:04:55;;;;;;;29.13;16.08;;;;;;;8.45;100.00;100575.81;5076490;28;20423;-59
2021/10/31 05:07:20;;;;;;;36.42;16.92;;;;;;;8.41;100.00;100577.72;5076487;28;20020;-59
2021/10/31 05:09:46;;;;;;;34.30;17.92;;;;;;;8.39;100.00;100569.00;5075992;28;20043;-59
2021/10/31 05:12:11;;;;;;;32.85;17.63;;;;;;;8.39;100.00;100571.66;5075868;28;20028;-59
2021/10/31 05:14:37;;;;;;;36.25;19.38;;;;;;;8.36;100.00;100566.47;5075769;28;20346;-59
2021/10/31 05:17:04;;;;;;;37.50;18.30;;;;;;;8.40;100.00;100565.47;5076472;28;20025;-59
2021/10/31 05:19:29;;;;;;;34.88;18.00;;;;;;;8.39;100.00;100561.09;5076135;28;20564;-63
2021/10/31 05:21:54;;;;;;;33.28;17.67;;;;;;;8.39;100.00;100566.38;5075576;28;20108;-59
2021/10/31 05:24:19;;;;;;;39.63;19.35;;;;;;;8.37;100.00;100557.66;5076193;28;20059;-59
2021/10/31 05:26:45;;;;;;;36.17;17.65;;;;;;;8.34;100.00;100550.72;5075920;28;20031;-59
2021/10/31 05:29:10;;;;;;;29.52;15.07;;;;;;;8.33;100.00;100559.53;5076032;28;20472;-59
2021/10/31 05:31:35;;;;;;;25.35;15.07;;;;;;;8.32;100.00;100559.63;5075286;28;20060;-65
2021/10/31 05:34:01;;;;;;;32.72;15.18;;;;;;;8.30;100.00;100537.69;5075405;28;20464;-65
2021/10/31 05:36:26;;;;;;;25.55;15.32;;;;;;;8.31;100.00;100544.69;5075196;28;20049;-63
2021/10/31 05:38:52;;;;;;;26.27;15.13;;;;;;;8.34;100.00;100536.69;5076545;28;20024;-59
2021/10/31 05:41:17;;;;;;;27.42;14.35;;;;;;;8.33;100.00;100535.81;5074972;28;20058;-59
2021/10/31 05:43:43;;;;;;;31.10;15.68;;;;;;;8.35;100.00;100541.88;5074537;28;20025;-59
2021/10/31 05:46:10;;;;;;;30.55;15.55;;;;;;;8.33;100.00;100527.88;5075479;28;20029;-58
2021/10/31 05:48:35;;;;;;;30.05;15.32;;;;;;;8.33;100.00;100532.31;5075685;28;20469;-59
2021/10/31 05:51:01;;;;;;;30.52;14.90;;;;;;;8.30;100.00;100525.38;5074763;28;20039;-60
2021/10/31 05:53:28;;;;;;;27.60;14.43;;;;;;;8.28;100.00;100515.81;5075258;28;20032;-60
2021/10/31 05:55:53;;;;;;;30.38;15.90;;;;;;;8.29;100.00;100509.63;5075481;28;20028;-59
2021/10/31 05:58:18;;;;;;;30.00;14.98;;;;;;;8.29;100.00;100514.91;5075413;28;20020;-59
2021/10/31 06:00:43;;;;;;;27.45;13.50;;;;;;;8.30;100.00;100511.31;5075294;28;20187;-59
2021/10/31 06:03:09;;;;;;;28.42;14.57;;;;;;;8.31;100.00;100515.69;5074548;28;20024;-59
2021/10/31 06:05:34;;;;;;;34.05;14.68;;;;;;;8.30;100.00;100511.31;5075283;28;20453;-63
2021/10/31 06:07:59;;;;;;;27.50;14.40;;;;;;;8.30;100.00;100509.56;5074858;28;20025;-59
2021/10/31 06:10:25;;;;;;;30.88;14.60;;;;;;;8.31;100.00;100511.28;5075178;28;20036;-58
2021/10/31 06:12:51;;;;;;;30.58;15.18;;;;;;;8.29;100.00;100517.53;5075410;28;20070;-59
2021/10/31 06:15:21;;;;;;;36.20;15.88;;;;;;;8.29;100.00;100514.91;5075126;28;20124;-60
2021/10/31 06:17:46;;;;;;;54.17;19.48;;;;;;;8.28;100.00;100507.91;5074822;28;20024;-62
2021/10/31 06:20:13;;;;;;;43.45;17.65;;;;;;;8.28;100.00;100511.38;5069932;28;20491;-55
2021/10/31 06:22:39;;;;;;;43.70;17.35;;;;;;;8.29;100.00;100499.91;5073653;28;20427;-56
2021/10/31 06:25:05;;;;;;;32.63;14.57;;;;;;;8.29;100.00;100504.34;5074564;28;20031;-58
2021/10/31 06:27:31;;;;;;;31.50;13.70;;;;;;;8.31;100.00;100495.44;5073919;28;20069;-59
2021/10/31 06:29:56;;;;;;;26.40;13.20;;;;;;;8.31;100.00;100491.94;5082166;28;20029;-59
2021/10/31 06:32:22;;;;;;;25.80;13.25;;;;;;;8.32;100.00;100483.94;5077111;28;20421;-52
2021/10/31 06:34:47;;;;;;;29.83;13.15;;;;;;;8.33;100.00;100484.81;5068426;28;20483;-59
2021/10/31 06:37:12;;;;;;;26.98;12.45;;;;;;;8.31;100.00;100482.25;5074150;28;20048;-61
2021/10/31 06:39:38;;;;;;;25.67;13.40;;;;;;;8.29;100.00;100475.34;5074374;28;20036;-61
2021/10/31 06:42:03;;;;;;;29.65;13.95;;;;;;;8.27;100.00;100477.16;5073424;28;20027;-57
2021/10/31 06:44:29;;;;;;;24.05;12.88;;;;;;;8.28;100.00;100481.53;5085783;28;20083;-59
2021/10/31 06:46:54;;;;;;;26.33;12.82;;;;;;;8.27;100.00;100483.28;5074403;28;20024;-57
2021/10/31 06:49:19;;;;;;;29.42;13.07;;;;;;;8.25;100.00;100479.88;5073238;28;20166;-61
2021/10/31 06:51:44;;;;;;;27.63;12.75;;;;;;;8.26;100.00;100472.81;5073668;28;20456;-57
2021/10/31 06:54:10;;;;;;;26.33;13.57;;;;;;;8.27;100.00;100469.25;5074451;28;20040;-61
2021/10/31 06:56:36;;;;;;;25.13;13.00;;;;;;;8.28;100.00;100463.91;5073256;28;20035;-64
2021/10/31 06:59:02;;;;;;;26.55;13.57;;;;;;;8.34;100.00;100468.09;5073204;28;20035;-58
2021/10/31 07:01:27;;;;;;;30.77;12.60;;;;;;;8.43;100.00;100458.94;5072953;28;20503;-61
2021/10/31 07:03:53;;;;;;;28.73;13.23;;;;;;;8.47;100.00;100435.00;5075202;28;20024;-60
2021/10/31 07:06:18;;;;;;;26.42;13.05;;;;;;;8.51;100.00;100431.28;5073469;28;20024;-59
2021/10/31 07:08:44;;;;;;;23.55;12.80;;;;;;;8.59;100.00;100435.41;5073927;28;20113;-59
2021/10/31 07:11:09;;;;;;;26.17;13.18;;;;;;;8.64;100.00;100421.06;5073606;28;20495;-61
2021/10/31 07:13:35;;;;;;;27.95;12.88;;;;;;;8.73;100.00;100434.81;5073396;28;20035;-59
2021/10/31 07:16:00;;;;;;;23.90;12.38;;;;;;;8.75;100.00;100427.69;5073591;28;20025;-55
2021/10/31 07:18:25;;;;;;;22.90;12.25;;;;;;;8.77;100.00;100428.47;5070504;28;20025;-60
2021/10/31 07:20:51;;;;;;;23.38;12.98;;;;;;;8.82;100.00;100429.13;5073230;28;20075;-59
2021/10/31 07:23:16;;;;;;;25.52;13.05;;;;;;;8.89;100.00;100429.69;5073594;28;20048;-59
2021/10/31 07:25:42;;;;;;;24.00;13.18;;;;;;;8.92;100.00;100424.28;5072978;28;20028;-59
2021/10/31 07:28:07;;;;;;;24.33;12.88;;;;;;;8.97;100.00;100420.50;5070939;28;20047;-61
2021/10/31 07:30:32;;;;;;;28.98;13.27;;;;;;;9.02;100.00;100415.03;5073528;28;20028;-61
2021/10/31 07:33:00;;;;;;;23.50;12.68;;;;;;;9.10;100.00;100427.88;5072750;28;20017;-61
2021/10/31 07:35:27;;;;;;;23.30;12.85;;;;;;;9.18;100.00;100421.34;5072676;28;20041;-60
2021/10/31 07:37:53;;;;;;;21.88;13.02;;;;;;;9.27;100.00;100427.09;5073147;28;20461;-61
2021/10/31 07:40:19;;;;;;;29.77;15.98;;;;;;;9.34;100.00;100426.75;5073088;28;20077;-61
2021/10/31 07:42:45;;;;;;;29.13;16.25;;;;;;;9.41;100.00;100426.47;5073093;28;20032;-62
2021/10/31 07:45:11;;;;;;;25.10;14.85;;;;;;;9.46;100.00;100424.47;5073130;28;20021;-62
2021/10/31 07:47:36;;;;;;;23.50;14.30;;;;;;;9.52;100.00;100432.97;5072313;28;20029;-60
2021/10/31 07:50:02;;;;;;;27.00;14.65;;;;;;;9.55;100.00;100433.75;5073255;28;20056;-61
2021/10/31 07:52:27;;;;;;;23.63;14.50;;;;;;;9.63;100.00;100431.59;5072963;28;20056;-63
2021/10/31 07:54:53;;;;;;;22.25;13.18;;;;;;;9.68;100.00;100429.63;5072533;28;20082;-60
2021/10/31 07:57:20;;;;;;;26.10;14.55;;;;;;;9.72;100.00;100432.94;5072930;28;20035;-59
2021/10/31 07:59:45;;;;;;;24.08;13.68;;;;;;;9.77;100.00;100421.25;5073221;28;20039;-58
2021/10/31 08:02:11;;;;;;;25.08;12.88;;;;;;;9.84;100.00;100421.78;5071993;28;20096;-59
2021/10/31 08:04:36;;;;;;;19.55;11.90;;;;;;;9.90;100.00;100410.03;5072709;28;20025;-62
2021/10/31 08:07:02;;;;;;;18.25;11.48;;;;;;;9.98;100.00;100392.88;5073117;28;20040;-60
2021/10/31 08:09:28;;;;;;;22.95;13.13;;;;;;;10.04;100.00;100397.03;5072533;28;20028;-61
2021/10/31 08:11:53;;;;;;;20.90;12.38;;;;;;;10.09;100.00;100391.47;5072893;28;20075;-58
2021/10/31 08:14:18;;;;;;;19.10;11.48;;;;;;;10.16;100.00;100379.66;5072751;28;20029;-60
2021/10/31 08:16:44;;;;;;;15.00;10.27;;;;;;;10.22;99.56;100367.91;5071872;28;20032;-63
2021/10/31 08:19:10;;;;;;;16.85;9.73;;;;;;;10.27;99.13;100373.84;5072754;28;20025;-58
2021/10/31 08:21:36;;;;;;;16.90;10.15;;;;;;;10.39;99.17;100367.09;5072293;28;20031;-61
2021/10/31 08:24:03;;;;;;;15.00;9.38;;;;;;;10.44;98.26;100365.91;5072197;28;20017;-61
2021/10/31 08:26:29;;;;;;;14.90;8.60;;;;;;;10.53;97.88;100372.50;5072518;28;20111;-61
2021/10/31 08:28:55;;;;;;;13.68;8.50;;;;;;;10.65;97.40;100357.75;5072876;28;20110;-61
2021/10/31 08:31:30;;;;;;;13.73;7.80;;;;;;;10.88;96.27;100353.03;5071579;28;20400;-59
2021/10/31 08:33:59;;;;;;;12.18;8.15;;;;;;;11.06;94.96;100343.22;5070042;28;20036;-62
2021/10/31 08:36:26;;;;;;;12.35;8.30;;;;;;;11.22;93.99;100340.59;5071512;28;20082;-58
2021/10/31 08:38:52;;;;;;;10.18;7.40;;;;;;;11.22;93.39;100348.56;5072297;28;20036;-58
2021/10/31 08:41:19;;;;;;;12.40;8.20;;;;;;;11.21;93.58;100330.94;5068540;28;20103;-60
2021/10/31 08:43:45;;;;;;;10.52;7.18;;;;;;;11.21;93.83;100330.94;5064176;28;20036;-60
2021/10/31 08:46:11;;;;;;;9.85;6.82;;;;;;;11.42;93.10;100324.44;5071676;28;20111;-64
2021/10/31 08:48:38;;;;;;;11.52;6.65;;;;;;;11.70;92.13;100322.88;5071902;28;20029;-63
2021/10/31 08:51:04;;;;;;;10.02;6.55;;;;;;;11.76;90.90;100326.94;5071543;28;20036;-58
2021/10/31 08:53:30;;;;;;;8.77;6.15;;;;;;;11.59;90.57;100323.47;5071966;28;20031;-61
2021/10/31 08:55:57;;;;;;;9.90;6.38;;;;;;;11.74;91.21;100323.50;5071582;28;20121;-62
2021/10/31 08:58:22;;;;;;;7.38;5.30;;;;;;;11.92;89.97;100324.25;5077778;28;20036;-58
2021/10/31 09:00:48;;;;;;;8.68;6.20;;;;;;;11.95;89.27;100321.41;5070761;28;20384;-60
2021/10/31 09:03:13;;;;;;;8.60;5.38;;;;;;;11.99;89.44;100322.13;5070794;28;20031;-62
2021/10/31 09:05:38;;;;;;;7.38;5.10;;;;;;;12.08;88.62;100303.84;5071718;28;20086;-61
2021/10/31 09:08:05;;;;;;;8.50;5.78;;;;;;;12.11;88.28;100310.75;5070624;28;20024;-58
2021/10/31 09:10:30;;;;;;;9.30;5.47;;;;;;;12.02;88.24;100296.28;5071411;28;20032;-60
2021/10/31 09:12:59;;;;;;;7.38;5.40;;;;;;;12.07;88.49;100294.19;5071262;28;20060;-59
2021/10/31 09:15:25;;;;;;;7.82;5.10;;;;;;;12.17;87.85;100288.31;5053733;28;20024;-59
2021/10/31 09:17:51;;;;;;;6.80;4.65;;;;;;;12.29;87.31;100279.63;5070714;28;20031;-58
2021/10/31 09:20:16;;;;;;;7.00;4.80;;;;;;;12.36;86.57;100272.97;5071683;28;20048;-62
2021/10/31 09:22:41;;;;;;;8.05;4.88;;;;;;;12.20;87.24;100280.16;5071161;28;20024;-61
2021/10/31 09:25:07;;;;;;;7.60;5.18;;;;;;;12.00;87.93;100274.25;5072563;28;20365;-62
2021/10/31 09:27:33;;;;;;;7.18;4.82;;;;;;;11.83;88.56;100266.41;5075350;28;20541;-59
2021/10/31 09:29:58;;;;;;;8.25;5.40;;;;;;;11.60;90.13;100256.22;5074913;28;20040;-61
2021/10/31 09:32:30;;;;;;;8.32;5.53;;;;;;;11.53;90.61;100248.72;5073078;28;20082;-60
2021/10/31 09:34:56;;;;;;;10.25;6.28;;;;;;;11.49;91.82;100256.00;5036941;28;20036;-59
2021/10/31 09:37:21;;;;;;;9.50;6.13;;;;;;;11.50;91.88;100254.22;5070223;28;20031;-60
2021/10/31 09:39:48;;;;;;;8.52;5.03;;;;;;;11.43;91.32;100246.63;5074976;28;20430;-60
2021/10/31 09:42:13;;;;;;;14.13;5.60;;;;;;;11.43;91.65;100230.72;5075439;28;20032;-60
2021/10/31 09:44:48;;;;;;;9.95;6.40;;;;;;;11.44;92.12;100220.94;5074459;28;20028;-59
2021/10/31 09:47:14;;;;;;;10.95;6.65;;;;;;;11.46;92.16;100208.47;5073939;28;20035;-57
2021/10/31 09:49:41;;;;;;;12.82;6.18;;;;;;;11.52;92.00;100207.25;5075162;28;20029;-62
2021/10/31 09:52:07;;;;;;;8.40;5.65;;;;;;;11.56;91.85;100201.66;5074771;28;20235;-59
2021/10/31 09:54:32;;;;;;;7.80;4.78;;;;;;;11.61;91.33;100188.13;5074470;28;20035;-61
2021/10/31 09:56:58;;;;;;;7.30;4.82;;;;;;;11.71;90.69;100183.97;5074385;28;20024;-62
2021/10/31 09:59:26;;;;;;;7.72;4.80;;;;;;;11.79;90.16;100183.50;5073168;28;20146;-63
2021/10/31 10:04:23;;;;;;;7.25;4.25;;;;;;;12.03;90.02;100185.66;5070555;28;20036;-54
2021/10/31 10:06:51;;;;;;;7.20;4.38;;;;;;;12.13;89.76;100178.84;5072367;28;20029;-61
2021/10/31 10:09:17;;;;;;;9.25;4.40;;;;;;;12.19;89.53;100175.81;5073343;28;20110;-60
2021/10/31 10:11:45;;;;;;;8.20;5.07;;;;;;;12.16;88.88;100181.31;5076729;28;20077;-61
2021/10/31 10:14:17;;;;;;;6.68;4.70;;;;;;;12.13;88.31;100186.78;5073813;28;20025;-62
2021/10/31 10:16:43;;;;;;;10.55;5.97;;;;;;;12.10;88.91;100187.00;5070989;28;20031;-64
2021/10/31 10:19:21;;;;;;;8.98;5.22;;;;;;;12.09;88.91;100175.50;5072956;28;20032;-57
2021/10/31 10:21:59;;;;;;;8.98;5.10;;;;;;;12.09;88.46;100178.16;5071186;28;20020;-59
2021/10/31 10:24:25;;;;;;;7.88;5.13;;;;;;;12.09;89.09;100180.81;5072037;28;20468;-57
2021/10/31 10:26:57;;;;;;;13.00;5.47;;;;;;;12.08;89.28;100162.34;5073464;28;20459;-55
2021/10/31 10:29:28;;;;;;;8.35;4.90;;;;;;;12.09;89.14;100156.09;5074500;28;20056;-59
2021/10/31 10:32:06;;;;;;;11.10;5.22;;;;;;;12.08;89.05;100154.38;5073922;28;20032;-57
2021/10/31 10:34:42;;;;;;;6.28;4.07;;;;;;;12.09;88.98;100146.31;5074012;28;20023;-60
2021/10/31 10:37:12;;;;;;;6.72;4.20;;;;;;;12.12;89.13;100132.00;5055554;28;20032;-60
2021/10/31 10:39:39;;;;;;;6.90;3.50;;;;;;;12.17;88.61;100116.63;5073304;28;20059;-61
2021/10/31 10:42:04;;;;;;;5.82;3.78;;;;;;;12.20;89.35;100105.84;5073146;28;20037;-56
2021/10/31 10:44:32;;;;;;;5.60;3.70;;;;;;;12.20;89.01;100094.34;5074145;28;20028;-61
2021/10/31 10:47:04;;;;;;;6.78;3.55;;;;;;;12.22;88.64;100097.78;5073489;28;20059;-61
2021/10/31 10:49:34;;;;;;;6.63;3.85;;;;;;;12.23;89.14;100094.19;5073620;28;20150;-60
2021/10/31 10:52:19;;;;;;;5.47;3.30;;;;;;;12.19;88.71;100077.59;5073473;28;20028;-62
2021/10/31 10:54:48;;;;;;;4.57;2.90;;;;;;;12.13;89.20;100062.06;5073240;28;20472;-61
2021/10/31 10:57:15;;;;;;;5.05;2.92;;;;;;;12.17;88.83;100062.72;5071855;28;20051;-60
2021/10/31 10:59:40;;;;;;;6.65;2.80;;;;;;;12.20;89.04;100057.19;5072427;28;20044;-60
2021/10/31 11:02:14;;;;;;;4.35;2.78;;;;;;;12.24;88.41;100061.38;5074041;28;20468;-59
2021/10/31 11:04:41;;;;;;;4.15;2.53;;;;;;;12.24;88.23;100061.38;5073662;28;20044;-61
2021/10/31 11:07:07;;;;;;;6.50;2.70;;;;;;;12.24;88.39;100061.38;5072836;28;20097;-61
2021/10/31 11:09:47;;;;;;;4.65;2.47;;;;;;;12.32;88.04;100072.34;5072006;28;20039;-61
2021/10/31 11:12:25;;;;;;;5.25;2.72;;;;;;;12.34;87.70;100062.50;5073124;28;20021;-53
2021/10/31 11:14:52;;;;;;;7.35;3.50;;;;;;;12.36;87.12;100079.16;5074196;28;20024;-61
2021/10/31 11:17:18;;;;;;;5.50;3.42;;;;;;;12.38;87.02;100066.66;5072732;28;20024;-60
2021/10/31 11:19:44;;;;;;;4.13;2.50;;;;;;;12.39;86.80;100064.81;5072840;28;20039;-60
2021/10/31 11:22:11;;;;;;;4.50;2.65;;;;;;;12.41;86.58;100060.28;5073869;28;20024;-61